createdAt,value
2023-03-08T00:00:30.019Z,9.85
2023-03-08T00:02:31.852Z,8.82
2023-03-08T00:04:34.834Z,7.57
2023-03-08T00:06:36.534Z,8.27
2023-03-08T00:08:38.614Z,8.55
2023-03-08T00:10:40.333Z,8.65
2023-03-08T00:12:41.918Z,8.50
2023-03-08T00:14:43.527Z,8.90
2023-03-08T00:16:45.265Z,9.05
2023-03-08T00:18:47.107Z,11.10
2023-03-08T00:21:08.252Z,8.38
2023-03-08T00:23:10.057Z,8.15
2023-03-08T00:25:11.934Z,8.05
2023-03-08T00:27:13.575Z,9.82
2023-03-08T00:29:15.266Z,8.77
2023-03-08T00:31:20.037Z,8.30
2023-03-08T00:33:21.635Z,8.93
2023-03-08T00:35:23.258Z,8.60
2023-03-08T00:37:25.501Z,8.07
2023-03-08T00:39:27.201Z,10.02
2023-03-08T00:41:28.856Z,8.95
2023-03-08T00:43:30.778Z,9.00
2023-03-08T00:45:32.492Z,8.80
2023-03-08T00:47:35.461Z,9.90
2023-03-08T00:49:37.135Z,8.73
2023-03-08T00:51:38.790Z,8.48
2023-03-08T00:53:40.526Z,9.30
2023-03-08T00:55:52.571Z,8.82
2023-03-08T00:57:54.142Z,11.98
2023-03-08T00:59:55.714Z,9.40
2023-03-08T01:01:57.358Z,7.50
2023-03-08T01:03:59.442Z,8.20
2023-03-08T01:06:09.906Z,8.40
2023-03-08T01:08:12.369Z,8.70
2023-03-08T01:10:14.127Z,9.00
2023-03-08T01:12:16.498Z,11.90
2023-03-08T01:14:18.051Z,9.30
2023-03-08T01:16:23.860Z,9.20
2023-03-08T01:18:25.903Z,9.00
2023-03-08T01:20:27.512Z,8.85
2023-03-08T01:22:29.098Z,8.55
2023-03-08T01:24:30.709Z,8.15
2023-03-08T01:26:32.424Z,8.75
2023-03-08T01:28:34.981Z,8.68
2023-03-08T01:30:36.681Z,8.95
2023-03-08T01:32:38.316Z,10.55
2023-03-08T01:34:39.904Z,9.90
2023-03-08T01:36:41.520Z,9.20
2023-03-08T01:38:43.653Z,9.23
2023-03-08T01:40:45.284Z,10.05
2023-03-08T01:42:47.059Z,8.98
2023-03-08T01:45:03.414Z,9.35
2023-03-08T01:47:05.065Z,8.77
2023-03-08T01:49:16.330Z,10.07
2023-03-08T01:51:25.909Z,8.82
2023-03-08T01:53:27.652Z,7.95
2023-03-08T01:55:29.299Z,8.15
2023-03-08T01:57:37.889Z,8.63
2023-03-08T01:59:40.087Z,10.32
2023-03-08T02:01:41.825Z,10.00
2023-03-08T02:03:44.876Z,8.80
2023-03-08T02:05:47.160Z,10.43
2023-03-08T02:07:48.782Z,10.18
2023-03-08T02:09:50.635Z,8.07
2023-03-08T02:11:52.543Z,8.50
2023-03-08T02:13:54.791Z,9.32
2023-03-08T02:15:57.439Z,10.20
2023-03-08T02:17:59.196Z,11.35
2023-03-08T02:20:27.275Z,8.80
2023-03-08T02:22:28.968Z,8.82
2023-03-08T02:24:30.546Z,9.07
2023-03-08T02:26:32.891Z,9.65
2023-03-08T02:28:34.611Z,8.50
2023-03-08T02:30:37.892Z,10.07
2023-03-08T02:32:39.918Z,8.77
2023-03-08T02:34:41.910Z,10.10
2023-03-08T02:36:43.648Z,9.82
2023-03-08T02:38:45.233Z,10.68
2023-03-08T02:40:48.300Z,9.38
2023-03-08T02:42:51.680Z,10.05
2023-03-08T02:44:54.810Z,8.80
2023-03-08T02:46:56.510Z,9.77
2023-03-08T02:48:58.174Z,10.45
2023-03-08T02:50:59.845Z,11.13
2023-03-08T02:53:01.423Z,8.35
2023-03-08T02:55:03.035Z,9.35
2023-03-08T02:57:04.707Z,13.68
2023-03-08T02:59:06.312Z,9.60
2023-03-08T03:01:13.119Z,9.70
2023-03-08T03:03:14.887Z,10.00
2023-03-08T03:05:16.500Z,8.50
2023-03-08T03:07:18.116Z,8.52
2023-03-08T03:09:19.727Z,9.43
2023-03-08T03:11:23.194Z,10.10
2023-03-08T03:13:24.786Z,8.93
2023-03-08T03:15:26.465Z,11.25
2023-03-08T03:17:28.522Z,9.95
2023-03-08T03:19:30.157Z,9.68
2023-03-08T03:21:31.850Z,9.20
2023-03-08T03:23:33.483Z,9.40
2023-03-08T03:25:38.317Z,9.80
2023-03-08T03:27:39.943Z,9.98
2023-03-08T03:29:41.657Z,9.07
2023-03-08T03:31:43.644Z,9.40
2023-03-08T03:33:45.858Z,11.07
2023-03-08T03:35:47.546Z,10.32
2023-03-08T03:37:49.139Z,10.10
2023-03-08T03:39:50.744Z,9.90
2023-03-08T03:41:52.388Z,9.05
2023-03-08T03:43:54.003Z,10.45
2023-03-08T03:46:00.445Z,7.93
2023-03-08T03:48:02.056Z,10.10
2023-03-08T03:50:03.943Z,9.70
2023-03-08T03:52:05.939Z,9.27
2023-03-08T03:54:07.570Z,8.38
2023-03-08T03:56:20.872Z,8.65
2023-03-08T03:58:22.677Z,8.70
2023-03-08T04:00:24.398Z,10.80
2023-03-08T04:02:26.028Z,9.55
2023-03-08T04:04:27.705Z,9.23
2023-03-08T04:06:30.659Z,13.20
2023-03-08T04:08:32.249Z,9.40
2023-03-08T04:10:34.092Z,10.38
2023-03-08T04:12:35.672Z,10.18
2023-03-08T04:14:37.508Z,8.68
2023-03-08T04:16:40.330Z,9.75
2023-03-08T04:18:42.562Z,8.32
2023-03-08T04:20:45.857Z,13.70
2023-03-08T04:22:47.548Z,9.10
2023-03-08T04:24:49.152Z,10.10
2023-03-08T04:26:50.825Z,8.40
2023-03-08T04:28:52.683Z,10.15
2023-03-08T04:30:54.346Z,10.13
2023-03-08T04:32:56.029Z,9.68
2023-03-08T04:34:57.618Z,9.48
2023-03-08T04:36:59.252Z,13.07
2023-03-08T04:39:00.848Z,12.40
2023-03-08T04:41:02.827Z,8.82
2023-03-08T04:43:04.394Z,9.73
2023-03-08T04:45:07.159Z,9.02
2023-03-08T04:47:09.985Z,9.80
2023-03-08T04:49:11.590Z,10.70
2023-03-08T04:51:15.682Z,7.60
2023-03-08T04:53:17.288Z,12.65
2023-03-08T04:55:19.511Z,10.75
2023-03-08T04:57:21.467Z,9.07
2023-03-08T04:59:23.085Z,9.15
2023-03-08T05:01:24.934Z,8.40
2023-03-08T05:03:26.594Z,9.63
2023-03-08T05:05:28.279Z,9.55
2023-03-08T05:07:29.926Z,8.35
2023-03-08T05:09:31.606Z,10.02
2023-03-08T05:11:33.919Z,9.20
2023-03-08T05:13:37.780Z,9.30
2023-03-08T05:15:39.405Z,7.38
2023-03-08T05:17:40.998Z,10.05
2023-03-08T05:19:42.663Z,9.27
2023-03-08T05:21:44.278Z,8.65
2023-03-08T05:23:46.842Z,10.50
2023-03-08T05:25:52.324Z,11.18
2023-03-08T05:27:54.073Z,10.13
2023-03-08T05:29:55.888Z,8.70
2023-03-08T05:31:59.011Z,9.38
2023-03-08T05:34:00.643Z,8.57
2023-03-08T05:36:02.420Z,11.30
2023-03-08T05:38:04.063Z,9.95
2023-03-08T05:40:06.649Z,9.18
2023-03-08T05:42:08.324Z,12.63
2023-03-08T05:44:10.018Z,9.38
2023-03-08T05:46:17.442Z,8.25
2023-03-08T05:48:19.099Z,9.13
2023-03-08T05:50:20.661Z,9.60
2023-03-08T05:52:22.352Z,10.00
2023-03-08T05:54:24.025Z,8.82
2023-03-08T05:56:25.857Z,8.65
2023-03-08T05:58:27.474Z,10.48
2023-03-08T06:00:29.097Z,9.02
2023-03-08T06:02:30.798Z,9.13
2023-03-08T06:04:32.801Z,10.00
2023-03-08T06:06:34.997Z,10.38
2023-03-08T06:08:36.958Z,11.52
2023-03-08T06:10:48.361Z,9.45
2023-03-08T06:12:50.844Z,9.85
2023-03-08T06:14:52.992Z,10.02
2023-03-08T06:16:54.778Z,10.05
2023-03-08T06:18:57.019Z,9.70
2023-03-08T06:21:04.108Z,10.43
2023-03-08T06:23:05.844Z,11.00
2023-03-08T06:25:08.343Z,9.10
2023-03-08T06:27:11.807Z,11.10
2023-03-08T06:29:13.573Z,10.27
2023-03-08T06:31:17.417Z,9.73
2023-03-08T06:33:21.273Z,11.73
2023-03-08T06:35:23.026Z,9.93
2023-03-08T06:37:24.787Z,8.27
2023-03-08T06:39:30.494Z,10.35
2023-03-08T06:41:36.281Z,10.63
2023-03-08T06:43:38.028Z,9.75
2023-03-08T06:45:39.918Z,10.20
2023-03-08T06:47:41.648Z,10.05
2023-03-08T06:49:44.237Z,10.50
2023-03-08T06:51:46.844Z,11.40
2023-03-08T06:53:48.739Z,10.38
2023-03-08T06:55:51.235Z,11.23
2023-03-08T06:57:56.262Z,11.85
2023-03-08T06:59:57.948Z,10.25
2023-03-08T07:01:59.582Z,12.13
2023-03-08T07:04:01.378Z,12.25
2023-03-08T07:06:05.630Z,12.23
2023-03-08T07:08:08.011Z,11.02
2023-03-08T07:10:16.806Z,9.48
2023-03-08T07:12:20.706Z,10.98
2023-03-08T07:14:22.414Z,9.88
2023-03-08T07:16:24.952Z,12.98
2023-03-08T07:18:26.832Z,14.15
2023-03-08T07:20:31.431Z,11.50
2023-03-08T07:22:33.373Z,12.30
2023-03-08T07:24:35.076Z,13.82
2023-03-08T07:26:36.927Z,14.93
2023-03-08T07:28:38.649Z,12.38
2023-03-08T07:30:40.759Z,11.18
2023-03-08T07:32:43.202Z,11.98
2023-03-08T07:34:51.061Z,12.23
2023-03-08T07:36:52.899Z,11.20
2023-03-08T07:38:54.607Z,11.80
2023-03-08T07:40:56.644Z,10.57
2023-03-08T07:43:03.145Z,11.55
2023-03-08T07:45:05.232Z,13.40
2023-03-08T07:47:07.395Z,12.15
2023-03-08T07:49:10.722Z,12.15
2023-03-08T07:51:15.747Z,12.25
2023-03-08T07:53:17.520Z,11.43
2023-03-08T07:55:19.308Z,13.48
2023-03-08T07:57:21.185Z,15.70
2023-03-08T07:59:23.707Z,13.30
2023-03-08T08:01:28.234Z,13.98
2023-03-08T08:03:30.091Z,13.30
2023-03-08T08:05:33.606Z,12.00
2023-03-08T08:07:35.388Z,14.80
2023-03-08T08:09:37.560Z,14.98
2023-03-08T08:11:39.398Z,21.45
2023-03-08T08:13:41.218Z,14.20
2023-03-08T08:15:42.882Z,14.35
2023-03-08T08:17:44.592Z,13.70
2023-03-08T08:19:46.542Z,14.23
2023-03-08T08:21:48.203Z,12.02
2023-03-08T08:23:49.826Z,16.83
2023-03-08T08:25:51.467Z,12.27
2023-03-08T08:27:53.517Z,15.00
2023-03-08T08:29:55.255Z,14.13
2023-03-08T08:31:57.285Z,14.32
2023-03-08T08:33:59.624Z,13.73
2023-03-08T08:36:07.709Z,13.30
2023-03-08T08:38:09.351Z,11.90
2023-03-08T08:40:12.284Z,15.70
2023-03-08T08:42:14.009Z,13.10
2023-03-08T08:44:15.700Z,13.02
2023-03-08T08:46:18.336Z,12.63
2023-03-08T08:48:20.093Z,11.75
2023-03-08T08:50:21.763Z,10.93
2023-03-08T08:52:23.523Z,11.88
2023-03-08T08:54:25.231Z,11.90
2023-03-08T08:56:28.760Z,9.07
2023-03-08T08:58:30.509Z,14.80
2023-03-08T09:00:33.615Z,10.80
2023-03-08T09:02:35.783Z,9.38
2023-03-08T09:04:37.517Z,9.82
2023-03-08T09:06:39.457Z,9.05
2023-03-08T09:08:44.002Z,9.25
2023-03-08T09:10:45.639Z,8.43
2023-03-08T09:12:47.465Z,9.27
2023-03-08T09:14:49.167Z,10.23
2023-03-08T09:16:52.557Z,7.65
2023-03-08T09:18:56.486Z,8.13
2023-03-08T09:20:58.116Z,8.13
2023-03-08T09:22:59.776Z,7.85
2023-03-08T09:25:01.432Z,9.00
2023-03-08T09:27:05.703Z,10.18
2023-03-08T09:29:07.639Z,15.13
2023-03-08T09:31:13.034Z,10.32
2023-03-08T09:33:14.875Z,9.52
2023-03-08T09:35:17.301Z,7.15
2023-03-08T09:37:19.186Z,7.18
2023-03-08T09:39:21.116Z,7.38
2023-03-08T09:41:45.781Z,6.85
2023-03-08T09:44:26.167Z,4.75
2023-03-08T09:46:32.693Z,8.15
2023-03-08T09:48:34.498Z,5.18
2023-03-08T09:50:52.348Z,5.65
2023-03-08T09:53:01.142Z,6.18
2023-03-08T09:55:03.930Z,6.05
2023-03-08T09:57:11.480Z,5.55
2023-03-08T09:59:26.789Z,5.30
2023-03-08T10:01:47.215Z,4.97
2023-03-08T10:04:12.272Z,5.40
2023-03-08T10:06:44.615Z,5.55
2023-03-08T10:09:01.515Z,6.70
2023-03-08T10:11:07.694Z,7.07
2023-03-08T10:13:34.870Z,6.40
2023-03-08T10:15:41.919Z,4.93
2023-03-08T10:17:54.128Z,5.07
2023-03-08T10:20:12.858Z,4.75
2023-03-08T10:22:43.067Z,4.95
2023-03-08T10:24:54.269Z,7.53
2023-03-08T10:27:14.847Z,4.22
2023-03-08T10:29:16.570Z,4.30
2023-03-08T10:31:31.400Z,3.85
2023-03-08T10:33:36.412Z,4.63
2023-03-08T10:36:13.514Z,3.83
2023-03-08T10:38:17.318Z,5.10
2023-03-08T10:40:22.057Z,3.63
2023-03-08T10:42:35.315Z,3.63
2023-03-08T10:44:44.933Z,3.97
2023-03-08T10:46:49.731Z,3.65
2023-03-08T10:48:51.720Z,4.50
2023-03-08T10:51:01.492Z,3.35
2023-03-08T10:53:18.181Z,3.15
2023-03-08T10:55:29.520Z,4.15
2023-03-08T10:57:32.320Z,3.75
2023-03-08T10:59:35.300Z,2.95
2023-03-08T11:01:49.507Z,4.07
2023-03-08T11:04:29.263Z,4.03
2023-03-08T11:06:32.439Z,5.80
2023-03-08T11:08:39.520Z,4.25
2023-03-08T11:10:41.198Z,4.85
2023-03-08T11:12:43.570Z,6.15
2023-03-08T11:14:51.717Z,5.28
2023-03-08T11:16:59.008Z,5.95
2023-03-08T11:19:30.085Z,5.30
2023-03-08T11:22:20.314Z,5.35
2023-03-08T11:24:44.729Z,4.72
2023-03-08T11:27:10.972Z,6.25
2023-03-08T11:29:35.767Z,6.13
2023-03-08T11:31:50.227Z,5.45
2023-03-08T11:34:03.914Z,6.15
2023-03-08T11:36:13.087Z,5.85
2023-03-08T11:38:17.792Z,5.72
2023-03-08T11:40:49.598Z,6.30
2023-03-08T11:42:53.833Z,5.60
2023-03-08T11:45:04.509Z,4.85
2023-03-08T11:47:24.841Z,5.78
2023-03-08T11:49:38.454Z,6.75
2023-03-08T11:52:07.965Z,4.88
2023-03-08T11:54:27.506Z,6.72
2023-03-08T11:56:34.922Z,5.80
2023-03-08T11:58:40.250Z,5.53
2023-03-08T12:00:43.722Z,5.95
2023-03-08T12:02:48.550Z,9.60
2023-03-08T12:05:15.022Z,5.00
2023-03-08T12:07:22.340Z,5.78
2023-03-08T12:09:37.605Z,4.72
2023-03-08T12:11:43.123Z,5.07
2023-03-08T12:13:47.707Z,4.63
2023-03-08T12:15:55.891Z,4.30
2023-03-08T12:18:05.714Z,5.93
2023-03-08T12:20:14.212Z,5.47
2023-03-08T12:22:39.506Z,5.55
2023-03-08T12:24:56.739Z,4.93
2023-03-08T12:27:08.181Z,6.07
2023-03-08T12:29:18.717Z,6.45
2023-03-08T12:31:30.304Z,5.78
2023-03-08T12:33:32.871Z,7.35
2023-03-08T12:35:38.682Z,4.85
2023-03-08T12:37:43.356Z,5.45
2023-03-08T12:40:02.520Z,5.00
2023-03-08T12:42:15.608Z,4.82
2023-03-08T12:44:29.349Z,4.28
2023-03-08T12:47:03.731Z,4.78
2023-03-08T12:49:19.653Z,3.67
2023-03-08T12:51:27.007Z,4.47
2023-03-08T12:53:37.983Z,3.70
2023-03-08T12:55:40.247Z,3.78
2023-03-08T12:57:52.281Z,3.92
2023-03-08T13:00:24.881Z,3.58
2023-03-08T13:02:31.844Z,5.32
2023-03-08T13:04:57.487Z,4.55
2023-03-08T13:07:21.735Z,4.57
2023-03-08T13:09:43.311Z,4.70
2023-03-08T13:12:01.685Z,4.20
2023-03-08T13:14:06.006Z,4.13
2023-03-08T13:16:23.062Z,4.28
2023-03-08T13:18:24.738Z,4.57
2023-03-08T13:20:41.761Z,5.10
2023-03-08T13:23:14.059Z,4.78
2023-03-08T13:25:50.640Z,4.65
2023-03-08T13:28:02.306Z,4.85
2023-03-08T13:30:38.066Z,3.85
2023-03-08T13:32:39.866Z,3.58
2023-03-08T13:35:02.932Z,4.32
2023-03-08T13:37:04.777Z,3.78
2023-03-08T13:39:16.059Z,2.65
2023-03-08T13:41:17.694Z,2.53
2023-03-08T13:43:28.823Z,1.98
2023-03-08T13:45:30.554Z,2.00
2023-03-08T13:47:37.615Z,1.77
2023-03-08T13:49:43.416Z,1.45
2023-03-08T13:51:50.143Z,1.60
2023-03-08T13:53:51.941Z,2.28
2023-03-08T13:55:57.048Z,1.70
2023-03-08T13:57:59.001Z,1.63
2023-03-08T14:00:20.247Z,1.85
2023-03-08T14:02:25.222Z,1.30
2023-03-08T14:04:28.941Z,2.08
2023-03-08T14:06:38.117Z,1.38
2023-03-08T14:08:39.883Z,1.60
2023-03-08T14:10:45.731Z,1.40
2023-03-08T14:12:47.401Z,1.85
2023-03-08T14:14:57.679Z,1.92
2023-03-08T14:16:59.739Z,2.55
2023-03-08T14:19:11.135Z,2.28
2023-03-08T14:21:18.622Z,2.10
2023-03-08T14:23:24.173Z,2.55
2023-03-08T14:25:31.721Z,3.70
2023-03-08T14:27:42.047Z,1.77
2023-03-08T14:29:45.362Z,2.70
2023-03-08T14:31:59.540Z,2.67
2023-03-08T14:34:03.512Z,2.30
2023-03-08T14:36:05.575Z,2.70
2023-03-08T14:38:33.340Z,2.40
2023-03-08T14:40:36.006Z,1.45
2023-03-08T14:42:44.607Z,1.95
2023-03-08T14:44:54.593Z,2.03
2023-03-08T14:46:59.331Z,2.13
2023-03-08T14:49:03.755Z,2.28
2023-03-08T14:51:06.398Z,2.00
2023-03-08T14:53:25.169Z,1.92
2023-03-08T14:55:29.692Z,2.25
2023-03-08T14:57:31.413Z,2.65
2023-03-08T14:59:33.073Z,2.42
2023-03-08T15:01:36.641Z,2.65
2023-03-08T15:03:38.508Z,6.00
2023-03-08T15:05:40.154Z,2.78
2023-03-08T15:07:42.258Z,3.40
2023-03-08T15:09:44.193Z,3.22
2023-03-08T15:11:47.456Z,3.55
2023-03-08T15:13:49.378Z,2.75
2023-03-08T15:15:51.372Z,3.20
2023-03-08T15:17:53.112Z,4.65
2023-03-08T15:19:54.774Z,3.55
2023-03-08T15:21:56.432Z,3.75
2023-03-08T15:23:58.384Z,3.10
2023-03-08T15:26:00.174Z,3.92
2023-03-08T15:28:01.839Z,3.15
2023-03-08T15:30:04.512Z,3.92
2023-03-08T15:32:06.900Z,2.53
2023-03-08T15:34:08.630Z,3.00
2023-03-08T15:36:15.862Z,2.80
2023-03-08T15:38:19.071Z,2.70
2023-03-08T15:40:25.536Z,2.72
2023-03-08T15:42:27.202Z,3.28
2023-03-08T15:44:28.833Z,1.75
2023-03-08T15:46:30.563Z,2.22
2023-03-08T15:48:32.558Z,2.80
2023-03-08T15:50:35.002Z,2.10
2023-03-08T15:52:36.650Z,2.97
2023-03-08T15:54:40.399Z,2.25
2023-03-08T15:56:42.195Z,1.77
2023-03-08T15:58:43.894Z,3.75
2023-03-08T16:00:45.494Z,1.92
2023-03-08T16:02:47.733Z,1.27
2023-03-08T16:04:49.471Z,2.30
2023-03-08T16:06:51.168Z,1.40
2023-03-08T16:08:52.834Z,1.73
2023-03-08T16:10:54.880Z,3.47
2023-03-08T16:12:56.649Z,1.10
2023-03-08T16:14:58.458Z,2.83
2023-03-08T16:17:00.301Z,1.65
2023-03-08T16:19:02.659Z,2.08
2023-03-08T16:21:10.892Z,1.00
2023-03-08T16:23:12.806Z,5.60
2023-03-08T16:25:14.427Z,1.30
2023-03-08T16:27:16.230Z,3.80
2023-03-08T16:29:17.866Z,1.05
2023-03-08T16:31:21.256Z,1.38
2023-03-08T16:33:23.063Z,6.28
2023-03-08T16:35:24.688Z,5.85
2023-03-08T16:37:26.794Z,1.73
2023-03-08T16:39:28.435Z,2.38
2023-03-08T16:41:30.222Z,1.35
2023-03-08T16:43:40.717Z,1.52
2023-03-08T16:46:08.046Z,1.40
2023-03-08T16:48:09.892Z,2.13
2023-03-08T16:50:13.121Z,2.65
2023-03-08T16:52:18.486Z,1.90
2023-03-08T16:54:20.082Z,2.28
2023-03-08T16:56:29.045Z,7.10
2023-03-08T16:58:30.666Z,3.13
2023-03-08T17:00:32.285Z,2.67
2023-03-08T17:02:33.993Z,2.10
2023-03-08T17:04:35.634Z,1.83
2023-03-08T17:06:37.912Z,1.75
2023-03-08T17:08:39.782Z,2.25
2023-03-08T17:10:43.564Z,2.30
2023-03-08T17:12:45.194Z,2.08
2023-03-08T17:14:46.896Z,2.50
2023-03-08T17:16:48.524Z,4.03
2023-03-08T17:18:51.560Z,2.30
2023-03-08T17:20:53.241Z,2.92
2023-03-08T17:22:54.853Z,2.72
2023-03-08T17:24:56.453Z,2.08
2023-03-08T17:26:58.519Z,3.95
2023-03-08T17:29:00.196Z,2.80
2023-03-08T17:31:02.286Z,1.70
2023-03-08T17:33:04.095Z,2.22
2023-03-08T17:35:06.140Z,1.52
2023-03-08T17:37:12.337Z,1.95
2023-03-08T17:39:14.365Z,1.52
2023-03-08T17:41:16.638Z,1.90
2023-03-08T17:43:20.045Z,2.83
2023-03-08T17:45:21.653Z,2.35
2023-03-08T17:47:23.409Z,2.92
2023-03-08T17:49:25.349Z,2.22
2023-03-08T17:51:29.311Z,2.33
2023-03-08T17:53:31.328Z,3.15
2023-03-08T17:55:32.981Z,3.22
2023-03-08T17:57:37.932Z,2.28
2023-03-08T17:59:39.537Z,5.85
2023-03-08T18:01:41.324Z,4.00
2023-03-08T18:03:43.253Z,3.25
2023-03-08T18:05:49.857Z,3.60
2023-03-08T18:07:51.537Z,3.00
2023-03-08T18:09:53.345Z,3.03
2023-03-08T18:11:55.001Z,3.08
2023-03-08T18:13:57.041Z,3.60
2023-03-08T18:15:58.692Z,2.25
2023-03-08T18:18:00.340Z,3.83
2023-03-08T18:20:05.290Z,3.42
2023-03-08T18:22:07.581Z,2.40
2023-03-08T18:24:12.830Z,2.40
2023-03-08T18:26:16.300Z,8.63
2023-03-08T18:28:18.993Z,2.50
2023-03-08T18:30:20.696Z,3.33
2023-03-08T18:32:22.531Z,1.58
2023-03-08T18:34:24.189Z,1.63
2023-03-08T18:36:25.878Z,3.35
2023-03-08T18:38:27.549Z,1.50
2023-03-08T18:40:29.554Z,1.35
2023-03-08T18:42:31.170Z,2.55
2023-03-08T18:44:33.036Z,7.55
2023-03-08T18:46:34.708Z,4.07
2023-03-08T18:48:36.800Z,2.97
2023-03-08T18:50:40.983Z,4.22
2023-03-08T18:52:43.254Z,4.82
2023-03-08T18:54:44.896Z,2.85
2023-03-08T18:56:50.004Z,4.47
2023-03-08T18:58:52.939Z,4.78
2023-03-08T19:00:58.865Z,3.63
2023-03-08T19:03:00.588Z,3.50
2023-03-08T19:05:02.374Z,3.00
2023-03-08T19:07:04.360Z,4.20
2023-03-08T19:09:16.138Z,2.72
2023-03-08T19:11:24.863Z,2.08
2023-03-08T19:13:26.559Z,2.70
2023-03-08T19:15:28.152Z,1.98
2023-03-08T19:17:29.861Z,3.33
2023-03-08T19:19:31.498Z,2.70
2023-03-08T19:21:35.568Z,4.47
2023-03-08T19:23:37.141Z,1.83
2023-03-08T19:25:57.324Z,2.53
2023-03-08T19:27:59.076Z,1.60
2023-03-08T19:30:00.872Z,1.55
2023-03-08T19:32:07.046Z,2.20
2023-03-08T19:34:10.379Z,1.00
2023-03-08T19:36:12.066Z,5.80
2023-03-08T19:38:13.704Z,10.77
2023-03-08T19:40:15.543Z,8.80
2023-03-08T19:42:17.617Z,4.55
2023-03-08T19:44:19.905Z,6.40
2023-03-08T19:46:21.624Z,4.60
2023-03-08T19:48:23.328Z,9.05
2023-03-08T19:50:24.948Z,9.73
2023-03-08T19:52:26.719Z,9.05
2023-03-08T19:54:29.214Z,14.90
2023-03-08T19:56:30.830Z,11.88
2023-03-08T19:58:32.450Z,4.47
2023-03-08T20:00:35.137Z,2.78
2023-03-08T20:02:37.827Z,3.28
2023-03-08T20:04:39.524Z,2.17
2023-03-08T20:06:46.235Z,2.38
2023-03-08T20:08:48.380Z,1.35
2023-03-08T20:10:50.056Z,1.98
2023-03-08T20:12:52.662Z,1.77
2023-03-08T20:14:54.894Z,2.45
2023-03-08T20:16:57.095Z,1.70
2023-03-08T20:18:58.973Z,2.55
2023-03-08T20:21:02.226Z,2.55
2023-03-08T20:23:03.927Z,1.30
2023-03-08T20:25:06.138Z,1.48
2023-03-08T20:27:07.828Z,2.53
2023-03-08T20:29:09.877Z,2.35
2023-03-08T20:31:12.749Z,2.08
2023-03-08T20:33:15.198Z,2.53
2023-03-08T20:35:17.572Z,4.47
2023-03-08T20:37:19.259Z,3.50
2023-03-08T20:39:22.592Z,3.42
2023-03-08T20:41:24.314Z,1.88
2023-03-08T20:43:26.194Z,3.50
2023-03-08T20:45:28.992Z,2.53
2023-03-08T20:47:30.765Z,3.13
2023-03-08T20:49:32.490Z,3.13
2023-03-08T20:51:34.152Z,3.38
2023-03-08T20:53:35.769Z,3.92
2023-03-08T20:55:41.828Z,4.30
2023-03-08T20:57:43.471Z,4.05
2023-03-08T20:59:45.084Z,4.35
2023-03-08T21:01:47.121Z,4.57
2023-03-08T21:03:48.958Z,5.70
2023-03-08T21:05:50.637Z,4.93
2023-03-08T21:07:52.309Z,3.83
2023-03-08T21:09:54.067Z,2.70
2023-03-08T21:11:55.744Z,3.47
2023-03-08T21:13:57.501Z,5.45
2023-03-08T21:16:10.953Z,2.90
2023-03-08T21:18:12.953Z,3.60
2023-03-08T21:20:14.627Z,3.38
2023-03-08T21:22:16.292Z,3.38
2023-03-08T21:24:19.377Z,3.58
2023-03-08T21:26:23.725Z,4.30
2023-03-08T21:28:25.354Z,4.32
2023-03-08T21:30:28.303Z,4.50
2023-03-08T21:32:30.261Z,4.72
2023-03-08T21:34:31.947Z,5.93
2023-03-08T21:36:34.790Z,4.53
2023-03-08T21:38:36.433Z,3.30
2023-03-08T21:40:41.307Z,8.77
2023-03-08T21:42:42.961Z,12.60
2023-03-08T21:44:44.693Z,11.68
2023-03-08T21:46:47.077Z,11.30
2023-03-08T21:48:49.017Z,11.82
2023-03-08T21:50:50.626Z,6.13
2023-03-08T21:52:52.490Z,6.05
2023-03-08T21:54:54.125Z,4.93
2023-03-08T21:56:56.403Z,6.95
2023-03-08T21:58:57.980Z,10.60
2023-03-08T22:00:59.911Z,4.00
2023-03-08T22:03:01.725Z,7.70
2023-03-08T22:05:04.186Z,4.63
2023-03-08T22:07:05.866Z,3.58
2023-03-08T22:09:07.915Z,4.95
2023-03-08T22:11:09.746Z,3.88
2023-03-08T22:13:11.360Z,3.22
2023-03-08T22:15:15.865Z,2.70
2023-03-08T22:17:17.576Z,3.30
2023-03-08T22:19:19.161Z,3.30
2023-03-08T22:21:21.273Z,3.75
2023-03-08T22:23:22.906Z,3.35
2023-03-08T22:25:24.504Z,4.03
2023-03-08T22:27:28.158Z,4.28
2023-03-08T22:29:29.791Z,3.92
2023-03-08T22:31:31.688Z,4.03
2023-03-08T22:33:33.328Z,3.95
2023-03-08T22:35:35.115Z,3.30
2023-03-08T22:37:37.277Z,3.70
2023-03-08T22:39:39.621Z,2.70
2023-03-08T22:41:41.841Z,2.10
2023-03-08T22:43:44.046Z,3.28
2023-03-08T22:45:45.668Z,2.22
2023-03-08T22:47:47.508Z,2.50
2023-03-08T22:49:50.912Z,1.80
2023-03-08T22:51:52.613Z,2.20
2023-03-08T22:53:54.239Z,2.00
2023-03-08T22:55:55.940Z,1.77
2023-03-08T22:57:57.621Z,1.90
2023-03-08T22:59:59.355Z,1.67
2023-03-08T23:02:01.160Z,3.00
2023-03-08T23:04:04.859Z,2.50
2023-03-08T23:06:06.716Z,1.10
2023-03-08T23:08:08.482Z,2.42
2023-03-08T23:10:11.048Z,2.22
2023-03-08T23:12:12.652Z,4.68
2023-03-08T23:14:14.955Z,1.50
2023-03-08T23:16:17.373Z,3.13
2023-03-08T23:18:19.495Z,1.55
2023-03-08T23:20:22.502Z,1.77
2023-03-08T23:22:24.293Z,1.67
2023-03-08T23:24:25.973Z,1.10
2023-03-08T23:26:28.580Z,2.15
2023-03-08T23:28:30.232Z,3.28
2023-03-08T23:30:31.995Z,1.10
2023-03-08T23:32:34.085Z,1.48
2023-03-08T23:34:35.801Z,0.88
2023-03-08T23:36:37.475Z,1.92
2023-03-08T23:38:39.461Z,1.70
2023-03-08T23:40:41.152Z,5.13
2023-03-08T23:42:43.032Z,2.42
2023-03-08T23:44:44.649Z,2.90
2023-03-08T23:46:46.397Z,1.00
2023-03-08T23:48:48.878Z,2.13
2023-03-08T23:50:50.565Z,2.22
2023-03-08T23:52:52.358Z,2.70
2023-03-08T23:54:54.002Z,2.55
2023-03-08T23:56:55.674Z,1.60
2023-03-08T23:59:01.257Z,4.18
